Time;durP1;ratioP1;P1;durP2;ratioP2;P2;SDS_P1;SDS_P2;PMS_P1;PMS_P2;Temp;Humidity;BMP_temperature;BMP_pressure;BME280_temperature;BME280_humidity;BME280_pressure;Samples;Min_cycle;Max_cycle;Signal;HPM_P1;HPM_P2
2022/07/24 00:01:45;;;;;;;3.23;3.03;;;;;;;;;;4977822;28;20206;-76
2022/07/24 00:04:14;;;;;;;3.53;2.83;;;;;;;;;;4977058;28;20206;-76
2022/07/24 00:06:44;;;;;;;3.30;3.00;;;;;;;;;;4976680;28;20264;-74
2022/07/24 00:09:12;;;;;;;3.20;3.00;;;;;;;;;;4957224;29;20273;-74
2022/07/24 00:11:41;;;;;;;4.27;2.80;;;;;;;;;;4969858;28;20213;-73
2022/07/24 00:14:09;;;;;;;3.10;2.90;;;;;;;;;;4976906;28;20609;-75
2022/07/24 00:16:38;;;;;;;3.37;3.07;;;;;;;;;;4976888;28;20581;-75
2022/07/24 00:19:07;;;;;;;3.70;2.90;;;;;;;;;;4976254;28;20207;-75
2022/07/24 00:21:35;;;;;;;2.83;2.63;;;;;;;;;;4977089;28;20224;-74
2022/07/24 00:24:06;;;;;;;2.93;2.73;;;;;;;;;;4996381;28;20626;-75
2022/07/24 00:26:34;;;;;;;4.13;3.27;;;;;;;;;;4978721;28;20240;-75
2022/07/24 00:29:02;;;;;;;3.50;3.20;;;;;;;;;;4976094;28;20261;-74
2022/07/24 00:31:32;;;;;;;3.10;2.90;;;;;;;;;;4976706;28;20230;-75
2022/07/24 00:34:01;;;;;;;3.23;2.93;;;;;;;;;;4976224;28;20209;-75
2022/07/24 00:36:29;;;;;;;2.83;2.63;;;;;;;;;;4976243;28;20236;-75
2022/07/24 00:38:58;;;;;;;3.50;3.20;;;;;;;;;;4976703;28;20210;-75
2022/07/24 00:41:27;;;;;;;3.47;3.10;;;;;;;;;;4976259;28;20594;-75
2022/07/24 00:44:03;;;;;;;3.50;3.20;;;;;;;;;;4976593;28;20233;-74
2022/07/24 00:46:31;;;;;;;3.60;3.30;;;;;;;;;;4976561;28;20237;-75
2022/07/24 00:49:00;;;;;;;3.33;3.13;;;;;;;;;;4976047;28;20206;-75
2022/07/24 00:51:30;;;;;;;3.60;3.33;;;;;;;;;;4970636;28;20233;-74
2022/07/24 00:53:58;;;;;;;3.50;3.20;;;;;;;;;;4976414;28;20216;-75
2022/07/24 00:56:28;;;;;;;3.97;3.67;;;;;;;;;;4976002;28;20226;-75
2022/07/24 00:58:57;;;;;;;3.70;3.40;;;;;;;;;;4975535;28;20210;-75
2022/07/24 01:01:25;;;;;;;3.73;3.43;;;;;;;;;;4976239;28;20209;-75
2022/07/24 01:03:58;;;;;;;3.30;3.10;;;;;;;;;;4975852;28;20300;-75
2022/07/24 01:06:27;;;;;;;4.90;3.77;;;;;;;;;;4975387;28;20631;-74
2022/07/24 01:08:56;;;;;;;4.27;3.67;;;;;;;;;;4975643;28;20205;-74
2022/07/24 01:11:25;;;;;;;3.83;3.20;;;;;;;;;;4975700;28;20217;-75
2022/07/24 01:13:54;;;;;;;4.13;3.50;;;;;;;;;;4975785;28;20209;-75
2022/07/24 01:16:23;;;;;;;3.33;3.13;;;;;;;;;;4975681;28;20222;-75
2022/07/24 01:18:51;;;;;;;3.77;3.47;;;;;;;;;;4975678;28;20639;-75
2022/07/24 01:21:21;;;;;;;3.57;3.27;;;;;;;;;;4976034;28;20233;-75
2022/07/24 01:23:49;;;;;;;4.03;3.67;;;;;;;;;;4975286;28;20249;-75
2022/07/24 01:26:18;;;;;;;4.60;3.40;;;;;;;;;;4975228;28;20702;-75
2022/07/24 01:28:46;;;;;;;3.90;3.60;;;;;;;;;;4975484;28;20205;-74
2022/07/24 01:31:15;;;;;;;6.13;3.50;;;;;;;;;;4975270;28;20237;-75
2022/07/24 01:33:43;;;;;;;3.90;3.23;;;;;;;;;;4975270;28;20627;-75
2022/07/24 01:36:12;;;;;;;3.67;3.30;;;;;;;;;;4975183;28;20229;-75
2022/07/24 01:38:41;;;;;;;3.87;3.53;;;;;;;;;;4975363;28;20210;-74
2022/07/24 01:41:10;;;;;;;3.67;3.37;;;;;;;;;;4975429;28;20206;-75
2022/07/24 01:43:39;;;;;;;3.67;3.37;;;;;;;;;;4975160;28;20209;-75
2022/07/24 01:46:09;;;;;;;3.67;3.37;;;;;;;;;;4975434;28;20217;-75
2022/07/24 01:48:38;;;;;;;5.33;3.93;;;;;;;;;;4975698;28;20662;-75
2022/07/24 01:51:06;;;;;;;3.80;3.50;;;;;;;;;;4975043;28;20284;-75
2022/07/24 01:53:35;;;;;;;4.27;3.70;;;;;;;;;;4975445;28;20202;-75
2022/07/24 01:56:05;;;;;;;3.87;3.57;;;;;;;;;;4974712;28;20248;-74
2022/07/24 01:58:33;;;;;;;4.53;4.13;;;;;;;;;;4975292;28;20198;-75
2022/07/24 02:01:02;;;;;;;4.60;4.20;;;;;;;;;;4975679;28;20229;-75
2022/07/24 02:03:31;;;;;;;4.33;4.03;;;;;;;;;;4975035;28;20205;-75
2022/07/24 02:05:59;;;;;;;4.13;3.67;;;;;;;;;;4974501;28;20210;-75
2022/07/24 02:08:28;;;;;;;4.80;4.40;;;;;;;;;;4975006;28;20643;-75
2022/07/24 02:10:56;;;;;;;4.50;4.10;;;;;;;;;;4975108;28;20237;-75
2022/07/24 02:13:26;;;;;;;4.73;4.07;;;;;;;;;;4975316;28;20206;-75
2022/07/24 02:15:57;;;;;;;5.10;4.20;;;;;;;;;;4974909;28;20213;-74
2022/07/24 02:18:25;;;;;;;4.23;3.80;;;;;;;;;;4974933;28;20209;-74
2022/07/24 02:20:54;;;;;;;4.07;3.70;;;;;;;;;;4974928;28;20198;-74
2022/07/24 02:23:22;;;;;;;5.60;4.10;;;;;;;;;;4975387;28;20252;-75
2022/07/24 02:25:51;;;;;;;4.47;4.07;;;;;;;;;;4974421;28;20202;-75
2022/07/24 02:28:20;;;;;;;4.97;4.10;;;;;;;;;;4974980;28;20210;-75
2022/07/24 02:30:51;;;;;;;4.37;3.97;;;;;;;;;;4975375;28;20733;-75
2022/07/24 02:33:19;;;;;;;6.10;3.57;;;;;;;;;;4975158;28;20236;-74
2022/07/24 02:35:47;;;;;;;4.23;3.40;;;;;;;;;;4974815;28;20205;-75
2022/07/24 02:38:16;;;;;;;4.43;4.03;;;;;;;;;;4974591;28;20276;-75
2022/07/24 02:40:45;;;;;;;4.50;4.10;;;;;;;;;;4973984;28;20572;-75
2022/07/24 02:43:13;;;;;;;4.47;4.17;;;;;;;;;;4974015;28;20228;-75
2022/07/24 02:45:42;;;;;;;4.60;4.30;;;;;;;;;;4973292;28;20706;-73
2022/07/24 02:48:12;;;;;;;6.70;4.80;;;;;;;;;;4973349;28;20236;-73
2022/07/24 02:50:41;;;;;;;4.93;4.43;;;;;;;;;;4974027;28;20230;-73
2022/07/24 02:53:09;;;;;;;5.77;4.80;;;;;;;;;;4974287;28;20206;-73
2022/07/24 02:55:37;;;;;;;5.03;4.63;;;;;;;;;;4972297;28;20202;-74
2022/07/24 02:58:06;;;;;;;4.90;4.50;;;;;;;;;;4973829;28;20229;-73
2022/07/24 03:00:34;;;;;;;5.23;4.70;;;;;;;;;;4974510;28;20671;-73
2022/07/24 03:03:03;;;;;;;4.67;4.27;;;;;;;;;;4973641;28;20202;-73
2022/07/24 03:05:32;;;;;;;4.90;4.50;;;;;;;;;;4974783;28;20209;-73
2022/07/24 03:08:01;;;;;;;6.10;4.40;;;;;;;;;;4977608;28;20230;-73
2022/07/24 03:10:29;;;;;;;4.37;3.97;;;;;;;;;;4977536;28;20210;-73
2022/07/24 03:12:58;;;;;;;5.43;4.07;;;;;;;;;;4977020;28;20276;-73
2022/07/24 03:15:26;;;;;;;5.47;4.27;;;;;;;;;;4977889;28;20228;-74
2022/07/24 03:17:56;;;;;;;4.70;4.20;;;;;;;;;;4977016;28;20700;-73
2022/07/24 03:20:26;;;;;;;4.37;4.00;;;;;;;;;;4977727;28;20205;-73
2022/07/24 03:22:56;;;;;;;5.00;4.50;;;;;;;;;;4977169;28;20261;-73
2022/07/24 03:25:25;;;;;;;4.47;4.17;;;;;;;;;;4977754;28;20217;-74
2022/07/24 03:27:54;;;;;;;5.00;4.60;;;;;;;;;;4972690;28;20226;-73
2022/07/24 03:30:22;;;;;;;4.47;4.07;;;;;;;;;;4974536;28;20256;-74
2022/07/24 03:32:51;;;;;;;4.17;3.87;;;;;;;;;;4976835;28;20218;-73
2022/07/24 03:35:19;;;;;;;6.40;4.20;;;;;;;;;;4976702;28;20209;-73
2022/07/24 03:37:48;;;;;;;4.97;4.57;;;;;;;;;;4974179;28;20225;-73
2022/07/24 03:40:18;;;;;;;5.20;4.73;;;;;;;;;;4976864;28;20655;-73
2022/07/24 03:42:47;;;;;;;5.20;4.80;;;;;;;;;;4977081;28;20210;-73
2022/07/24 03:45:15;;;;;;;5.50;4.17;;;;;;;;;;4975371;28;20206;-73
2022/07/24 03:47:43;;;;;;;4.40;4.00;;;;;;;;;;4976540;28;20233;-73
2022/07/24 03:50:12;;;;;;;4.67;4.10;;;;;;;;;;4976809;28;20202;-73
2022/07/24 03:52:44;;;;;;;4.37;4.00;;;;;;;;;;4976311;28;20221;-73
2022/07/24 03:55:13;;;;;;;6.57;4.33;;;;;;;;;;4975968;28;20213;-73
2022/07/24 03:57:42;;;;;;;4.90;4.33;;;;;;;;;;4975888;28;20225;-74
2022/07/24 04:00:12;;;;;;;5.40;4.40;;;;;;;;;;4974438;28;20630;-73
2022/07/24 04:02:40;;;;;;;4.53;4.13;;;;;;;;;;4975794;28;20204;-73
2022/07/24 04:05:09;;;;;;;4.73;3.90;;;;;;;;;;4975909;28;20205;-73
2022/07/24 04:07:38;;;;;;;4.03;3.73;;;;;;;;;;4975137;28;20596;-73
2022/07/24 04:10:08;;;;;;;4.67;4.27;;;;;;;;;;4976022;28;20218;-73
2022/07/24 04:12:37;;;;;;;5.87;4.93;;;;;;;;;;4975236;28;20691;-73
2022/07/24 04:15:08;;;;;;;5.67;5.17;;;;;;;;;;4975131;28;20265;-74
2022/07/24 04:17:39;;;;;;;5.50;5.10;;;;;;;;;;4975958;28;20226;-74
2022/07/24 04:20:08;;;;;;;6.57;5.20;;;;;;;;;;4975759;28;21018;-73
2022/07/24 04:22:36;;;;;;;5.87;5.37;;;;;;;;;;4975453;28;20674;-73
2022/07/24 04:25:07;;;;;;;5.70;5.07;;;;;;;;;;4975178;28;20231;-74
2022/07/24 04:27:35;;;;;;;6.03;5.53;;;;;;;;;;4961324;28;20686;-74
2022/07/24 04:30:04;;;;;;;6.10;5.60;;;;;;;;;;4975466;28;20719;-74
2022/07/24 04:32:34;;;;;;;6.40;5.80;;;;;;;;;;4974947;28;20225;-74
2022/07/24 04:35:03;;;;;;;6.27;5.67;;;;;;;;;;4975419;28;20663;-74
2022/07/24 04:37:31;;;;;;;6.00;5.50;;;;;;;;;;4975372;28;20596;-74
2022/07/24 04:40:00;;;;;;;6.20;5.60;;;;;;;;;;4976250;28;20209;-74
2022/07/24 04:42:28;;;;;;;6.60;5.90;;;;;;;;;;4974061;28;20245;-74
2022/07/24 04:44:57;;;;;;;6.40;5.90;;;;;;;;;;4973722;28;20213;-74
2022/07/24 04:47:25;;;;;;;6.90;6.30;;;;;;;;;;4975831;28;20628;-74
2022/07/24 04:49:55;;;;;;;6.43;5.93;;;;;;;;;;4975064;28;20214;-74
2022/07/24 04:52:23;;;;;;;6.57;6.07;;;;;;;;;;4971941;28;20806;-75
2022/07/24 04:54:52;;;;;;;6.80;5.83;;;;;;;;;;4974965;28;20651;-74
2022/07/24 04:57:20;;;;;;;6.50;6.00;;;;;;;;;;4974478;28;20638;-74
2022/07/24 04:59:49;;;;;;;6.80;6.20;;;;;;;;;;4971694;28;20217;-74
2022/07/24 05:02:17;;;;;;;6.90;6.10;;;;;;;;;;4974683;28;20198;-74
2022/07/24 05:04:45;;;;;;;5.70;5.20;;;;;;;;;;4971193;28;20205;-74
2022/07/24 05:07:15;;;;;;;6.30;5.70;;;;;;;;;;4974949;28;20230;-74
2022/07/24 05:09:44;;;;;;;5.33;4.83;;;;;;;;;;4974530;28;20592;-74
2022/07/24 05:12:12;;;;;;;5.67;5.10;;;;;;;;;;4974079;28;20226;-74
2022/07/24 05:14:40;;;;;;;4.80;4.40;;;;;;;;;;4976021;28;20354;-74
2022/07/24 05:17:09;;;;;;;5.60;5.07;;;;;;;;;;4974883;28;20236;-76
2022/07/24 05:19:37;;;;;;;5.20;4.70;;;;;;;;;;4975427;28;20213;-76
2022/07/24 05:22:06;;;;;;;5.97;4.57;;;;;;;;;;4975604;28;20675;-76
2022/07/24 05:24:36;;;;;;;4.77;4.20;;;;;;;;;;4975877;28;20206;-76
2022/07/24 05:27:04;;;;;;;5.20;4.70;;;;;;;;;;4974806;28;20229;-76
2022/07/24 05:29:39;;;;;;;4.90;4.50;;;;;;;;;;4975483;28;20644;-76
2022/07/24 05:32:09;;;;;;;7.80;4.77;;;;;;;;;;4975020;28;20232;-76
2022/07/24 05:34:38;;;;;;;5.57;4.30;;;;;;;;;;4975717;28;20682;-76
2022/07/24 05:37:08;;;;;;;4.87;4.43;;;;;;;;;;4975442;28;20277;-76
2022/07/24 05:39:38;;;;;;;4.10;3.80;;;;;;;;;;4975412;28;20607;-76
2022/07/24 05:42:07;;;;;;;5.40;4.07;;;;;;;;;;4975906;28;20672;-76
2022/07/24 05:44:36;;;;;;;3.93;3.63;;;;;;;;;;4975603;28;20248;-76
2022/07/24 05:47:04;;;;;;;3.93;3.53;;;;;;;;;;4975219;28;20230;-76
2022/07/24 05:49:35;;;;;;;4.13;3.20;;;;;;;;;;4975232;28;20190;-76
2022/07/24 05:52:03;;;;;;;3.83;3.40;;;;;;;;;;4975000;28;20210;-76
2022/07/24 05:54:37;;;;;;;3.70;3.40;;;;;;;;;;4975177;28;20585;-76
2022/07/24 05:57:07;;;;;;;3.17;2.87;;;;;;;;;;4974601;28;20226;-76
2022/07/24 05:59:35;;;;;;;3.27;2.73;;;;;;;;;;4974517;28;20264;-76
2022/07/24 06:02:04;;;;;;;3.10;2.90;;;;;;;;;;4974985;28;20799;-76
2022/07/24 06:04:35;;;;;;;4.90;2.83;;;;;;;;;;4974553;28;20229;-76
2022/07/24 06:07:04;;;;;;;3.77;2.40;;;;;;;;;;4974922;28;20597;-76
2022/07/24 06:09:32;;;;;;;4.50;2.20;;;;;;;;;;4974689;28;20579;-76
2022/07/24 06:12:01;;;;;;;3.87;2.30;;;;;;;;;;4974541;28;20205;-76
2022/07/24 06:14:31;;;;;;;2.17;2.03;;;;;;;;;;4974624;28;20619;-76
2022/07/24 06:17:00;;;;;;;2.25;2.03;;;;;;;;;;4974486;28;20643;-76
2022/07/24 06:19:28;;;;;;;3.88;1.77;;;;;;;;;;4974793;28;20260;-76
2022/07/24 06:21:57;;;;;;;2.53;2.00;;;;;;;;;;4974135;28;20214;-76
2022/07/24 06:24:26;;;;;;;4.18;1.90;;;;;;;;;;4974618;28;20229;-77
2022/07/24 06:26:55;;;;;;;2.00;1.80;;;;;;;;;;4974282;28;20261;-76
2022/07/24 06:29:41;;;;;;;2.00;1.80;;;;;;;;;;4974321;28;20261;-76
2022/07/24 06:32:10;;;;;;;2.35;1.60;;;;;;;;;;4974465;28;20214;-76
2022/07/24 06:34:38;;;;;;;2.75;1.70;;;;;;;;;;4974111;28;20230;-76
2022/07/24 06:37:07;;;;;;;2.50;1.90;;;;;;;;;;4974068;28;20261;-76
2022/07/24 06:39:35;;;;;;;1.88;1.70;;;;;;;;;;4977537;28;20272;-77
2022/07/24 06:42:03;;;;;;;2.38;1.90;;;;;;;;;;4978141;28;20269;-77
2022/07/24 06:44:33;;;;;;;2.00;1.80;;;;;;;;;;4977969;28;20206;-77
2022/07/24 06:47:03;;;;;;;4.05;1.98;;;;;;;;;;4978201;28;20593;-77
2022/07/24 06:49:31;;;;;;;1.83;1.70;;;;;;;;;;4978311;28;20209;-77
2022/07/24 06:52:00;;;;;;;2.13;1.80;;;;;;;;;;4978115;28;20205;-77
2022/07/24 06:54:28;;;;;;;2.22;1.77;;;;;;;;;;4978039;28;20713;-77
2022/07/24 06:56:57;;;;;;;1.92;1.63;;;;;;;;;;4977884;28;20280;-77
2022/07/24 06:59:25;;;;;;;2.05;1.83;;;;;;;;;;4977967;28;20265;-77
2022/07/24 07:01:54;;;;;;;2.35;2.05;;;;;;;;;;4977746;28;20210;-77
2022/07/24 07:04:23;;;;;;;3.33;2.20;;;;;;;;;;4977620;28;20202;-77
2022/07/24 07:06:52;;;;;;;2.20;1.98;;;;;;;;;;4977853;28;20698;-77
2022/07/24 07:09:20;;;;;;;2.30;2.03;;;;;;;;;;4977177;28;20206;-76
2022/07/24 07:11:49;;;;;;;2.28;2.08;;;;;;;;;;4977406;28;20210;-76
2022/07/24 07:14:19;;;;;;;3.40;2.00;;;;;;;;;;4977619;28;20284;-77
2022/07/24 07:16:48;;;;;;;2.75;2.10;;;;;;;;;;4977077;28;20233;-77
2022/07/24 07:19:17;;;;;;;3.40;2.10;;;;;;;;;;4977288;28;20206;-77
2022/07/24 07:21:46;;;;;;;2.03;1.70;;;;;;;;;;4977143;28;20222;-76
2022/07/24 07:24:15;;;;;;;4.68;2.33;;;;;;;;;;4977307;28;20206;-77
2022/07/24 07:26:44;;;;;;;2.33;2.13;;;;;;;;;;4977275;28;20229;-76
2022/07/24 07:29:12;;;;;;;2.03;1.90;;;;;;;;;;4977014;28;20210;-76
2022/07/24 07:31:41;;;;;;;2.20;2.10;;;;;;;;;;4976705;28;20209;-77
2022/07/24 07:34:09;;;;;;;2.33;2.13;;;;;;;;;;4977413;28;20589;-77
2022/07/24 07:36:38;;;;;;;4.20;2.15;;;;;;;;;;4977126;28;20698;-76
2022/07/24 07:39:08;;;;;;;3.28;2.40;;;;;;;;;;4977193;28;20213;-76
2022/07/24 07:41:36;;;;;;;3.53;2.40;;;;;;;;;;4977280;28;20205;-77
2022/07/24 07:44:05;;;;;;;3.17;2.40;;;;;;;;;;4976978;28;20718;-77
2022/07/24 07:46:35;;;;;;;2.90;2.30;;;;;;;;;;4976749;28;20284;-76
2022/07/24 07:49:04;;;;;;;2.50;2.30;;;;;;;;;;4976999;28;20663;-77
2022/07/24 07:51:33;;;;;;;3.42;2.40;;;;;;;;;;4977386;28;20206;-77
2022/07/24 07:54:02;;;;;;;3.97;2.70;;;;;;;;;;4977106;28;20225;-77
2022/07/24 07:56:32;;;;;;;2.50;2.30;;;;;;;;;;4976684;28;20229;-77
2022/07/24 07:59:00;;;;;;;4.05;2.58;;;;;;;;;;4976886;28;20530;-77
2022/07/24 08:01:29;;;;;;;2.95;2.65;;;;;;;;;;4976977;28;20210;-77
2022/07/24 08:03:58;;;;;;;4.43;2.70;;;;;;;;;;4976624;28;20213;-77
2022/07/24 08:06:26;;;;;;;2.97;2.40;;;;;;;;;;4976684;28;20237;-76
2022/07/24 08:08:57;;;;;;;3.05;2.75;;;;;;;;;;4976401;28;20702;-77
2022/07/24 08:11:26;;;;;;;3.28;2.55;;;;;;;;;;4976807;28;20209;-77
2022/07/24 08:13:56;;;;;;;3.40;2.80;;;;;;;;;;4976525;28;20686;-77
2022/07/24 08:16:25;;;;;;;3.35;2.80;;;;;;;;;;4976448;28;20226;-77
2022/07/24 08:18:53;;;;;;;3.15;2.83;;;;;;;;;;4976239;28;20202;-77
2022/07/24 08:21:22;;;;;;;3.40;3.10;;;;;;;;;;4976307;28;20210;-77
2022/07/24 08:23:50;;;;;;;3.53;3.22;;;;;;;;;;4975999;28;20201;-77
2022/07/24 08:26:19;;;;;;;3.47;3.03;;;;;;;;;;4976641;28;20591;-77
2022/07/24 08:28:47;;;;;;;4.45;2.92;;;;;;;;;;4976091;28;20260;-77
2022/07/24 08:31:17;;;;;;;4.88;3.35;;;;;;;;;;4976759;28;20678;-77
2022/07/24 08:33:46;;;;;;;3.58;3.28;;;;;;;;;;4975996;28;20336;-77
2022/07/24 08:36:14;;;;;;;3.83;3.08;;;;;;;;;;4974070;28;20268;-77
2022/07/24 08:38:43;;;;;;;3.25;2.92;;;;;;;;;;4974531;28;20202;-77
2022/07/24 08:41:14;;;;;;;4.32;3.58;;;;;;;;;;4975985;28;20194;-76
2022/07/24 08:43:43;;;;;;;3.80;3.50;;;;;;;;;;4976140;28;20553;-77
2022/07/24 08:46:12;;;;;;;3.78;2.90;;;;;;;;;;4975965;28;20213;-77
2022/07/24 08:48:45;;;;;;;3.42;3.10;;;;;;;;;;4975635;28;20217;-77
2022/07/24 08:51:14;;;;;;;5.43;3.33;;;;;;;;;;4975539;28;20222;-77
2022/07/24 08:53:44;;;;;;;3.75;3.30;;;;;;;;;;4975880;28;20212;-77
2022/07/24 08:56:12;;;;;;;3.67;3.30;;;;;;;;;;4975574;28;20618;-77
2022/07/24 08:58:42;;;;;;;4.82;3.70;;;;;;;;;;4975737;28;20209;-77
2022/07/24 09:01:10;;;;;;;3.40;3.17;;;;;;;;;;4975647;28;20667;-77
2022/07/24 09:03:47;;;;;;;3.67;3.38;;;;;;;;;;4975977;28;20213;-77
2022/07/24 09:06:16;;;;;;;4.70;3.42;;;;;;;;;;4976117;28;20289;-76
2022/07/24 09:08:57;;;;;;;5.15;3.33;;;;;;;;;;4975891;28;20625;-77
2022/07/24 09:11:28;;;;;;;4.05;3.60;;;;;;;;;;4976003;28;20232;-77
2022/07/24 09:16:47;;;;;;;3.80;3.50;;;;;;;;;;4976058;28;20577;-77
2022/07/24 09:19:17;;;;;;;3.97;3.45;;;;;;;;;;4975778;28;20209;-77
2022/07/24 09:21:49;;;;;;;3.75;3.40;;;;;;;;;;4975898;28;20735;-77
2022/07/24 09:24:22;;;;;;;3.30;3.00;;;;;;;;;;4975416;28;20225;-77
2022/07/24 09:26:51;;;;;;;3.80;3.50;;;;;;;;;;4975595;28;20230;-77
2022/07/24 09:29:20;;;;;;;5.47;4.00;;;;;;;;;;4975548;28;20214;-77
2022/07/24 09:31:53;;;;;;;4.38;3.90;;;;;;;;;;4975726;28;20206;-77
2022/07/24 09:34:23;;;;;;;3.97;3.40;;;;;;;;;;4975076;28;20268;-77
2022/07/24 09:36:56;;;;;;;4.93;3.58;;;;;;;;;;4975614;28;20232;-77
2022/07/24 09:39:25;;;;;;;7.20;4.72;;;;;;;;;;4975598;28;20190;-77
2022/07/24 09:41:55;;;;;;;5.30;3.88;;;;;;;;;;4975084;28;20202;-77
2022/07/24 09:44:25;;;;;;;5.13;3.70;;;;;;;;;;4975065;28;20225;-76
2022/07/24 09:46:57;;;;;;;4.80;4.32;;;;;;;;;;4975208;28;20591;-77
2022/07/24 09:49:27;;;;;;;4.60;4.20;;;;;;;;;;4975206;28;20666;-78
2022/07/24 09:52:10;;;;;;;4.25;3.83;;;;;;;;;;4975345;28;20220;-77
2022/07/24 09:54:39;;;;;;;4.15;3.80;;;;;;;;;;4974576;28;20217;-77
2022/07/24 09:57:22;;;;;;;4.95;4.32;;;;;;;;;;4974702;28;20228;-77
2022/07/24 09:59:51;;;;;;;4.38;3.90;;;;;;;;;;4975258;28;20204;-77
2022/07/24 10:02:25;;;;;;;6.30;4.15;;;;;;;;;;4974969;28;20205;-77
2022/07/24 10:04:56;;;;;;;4.95;4.45;;;;;;;;;;4975247;28;20186;-77
2022/07/24 10:07:25;;;;;;;5.47;4.20;;;;;;;;;;4975181;28;20225;-77
2022/07/24 10:09:57;;;;;;;4.40;4.00;;;;;;;;;;4975119;28;20260;-77
2022/07/24 10:12:26;;;;;;;4.00;3.60;;;;;;;;;;4975479;28;20197;-77
2022/07/24 10:14:56;;;;;;;4.82;4.35;;;;;;;;;;4977800;28;20229;-77
2022/07/24 10:17:27;;;;;;;5.40;4.45;;;;;;;;;;4978891;28;20260;-77
2022/07/24 10:19:59;;;;;;;6.30;4.40;;;;;;;;;;4978600;28;20186;-77
2022/07/24 10:22:56;;;;;;;4.95;4.05;;;;;;;;;;4979247;28;20611;-77
2022/07/24 10:25:26;;;;;;;4.60;4.18;;;;;;;;;;4979028;28;20193;-77
2022/07/24 10:27:56;;;;;;;4.55;4.10;;;;;;;;;;4979015;28;20234;-78
2022/07/24 10:30:24;;;;;;;4.78;4.38;;;;;;;;;;4979214;28;20205;-78
2022/07/24 10:32:53;;;;;;;5.93;4.10;;;;;;;;;;4978729;28;20733;-77
2022/07/24 10:35:24;;;;;;;6.10;4.30;;;;;;;;;;4979325;28;20269;-78
2022/07/24 10:37:55;;;;;;;4.80;4.30;;;;;;;;;;4979016;28;20229;-77
2022/07/24 10:40:26;;;;;;;4.40;4.00;;;;;;;;;;4977744;28;20190;-76
2022/07/24 10:43:10;;;;;;;5.45;4.30;;;;;;;;;;4978843;28;20595;-77
2022/07/24 10:45:39;;;;;;;5.60;4.25;;;;;;;;;;4978715;28;20638;-77
2022/07/24 10:48:30;;;;;;;5.15;4.75;;;;;;;;;;4978245;28;20255;-77
2022/07/24 10:51:08;;;;;;;5.45;4.07;;;;;;;;;;4978346;28;20202;-77
2022/07/24 10:53:47;;;;;;;5.05;4.65;;;;;;;;;;4978539;28;20662;-77
2022/07/24 10:56:17;;;;;;;4.65;4.25;;;;;;;;;;4978604;28;20234;-77
2022/07/24 10:58:56;;;;;;;4.90;4.50;;;;;;;;;;4978592;28;20210;-77
2022/07/24 11:01:31;;;;;;;5.75;4.60;;;;;;;;;;4977983;28;20209;-77
2022/07/24 11:04:01;;;;;;;4.93;4.53;;;;;;;;;;4978050;28;20205;-77
2022/07/24 11:06:44;;;;;;;5.38;4.90;;;;;;;;;;4977666;28;20222;-77
2022/07/24 11:09:12;;;;;;;5.22;4.72;;;;;;;;;;4978441;28;20190;-77
2022/07/24 11:11:42;;;;;;;4.80;4.25;;;;;;;;;;4978018;28;20206;-77
2022/07/24 11:14:12;;;;;;;5.05;4.63;;;;;;;;;;4978696;28;20233;-77
2022/07/24 11:16:40;;;;;;;6.20;4.40;;;;;;;;;;4978087;28;20233;-78
2022/07/24 11:19:36;;;;;;;4.90;4.50;;;;;;;;;;4978014;28;20554;-75
2022/07/24 11:22:12;;;;;;;4.97;4.47;;;;;;;;;;4953910;28;20256;-76
2022/07/24 11:24:42;;;;;;;4.60;4.20;;;;;;;;;;4977182;28;20208;-77
2022/07/24 11:27:22;;;;;;;6.88;4.32;;;;;;;;;;4978215;28;20230;-77
2022/07/24 11:29:53;;;;;;;5.00;4.60;;;;;;;;;;4977961;28;20201;-77
2022/07/24 11:32:22;;;;;;;4.80;4.40;;;;;;;;;;4977623;28;20194;-77
2022/07/24 11:34:51;;;;;;;4.75;4.35;;;;;;;;;;4978057;28;20210;-77
2022/07/24 11:37:24;;;;;;;4.30;4.00;;;;;;;;;;4977934;28;20229;-75
2022/07/24 11:39:53;;;;;;;5.35;4.10;;;;;;;;;;4977027;28;20280;-75
2022/07/24 11:42:21;;;;;;;5.07;4.35;;;;;;;;;;4977679;28;20206;-75
2022/07/24 11:44:51;;;;;;;5.13;4.57;;;;;;;;;;4977221;28;20209;-76
2022/07/24 11:47:20;;;;;;;5.00;4.60;;;;;;;;;;4976910;28;20232;-78
2022/07/24 11:49:49;;;;;;;5.03;4.63;;;;;;;;;;4977464;28;20206;-78
2022/07/24 11:52:19;;;;;;;5.45;4.30;;;;;;;;;;4977470;28;20214;-78
2022/07/24 11:54:50;;;;;;;4.43;4.03;;;;;;;;;;4977840;28;20213;-78
2022/07/24 11:57:20;;;;;;;5.75;4.53;;;;;;;;;;4976270;28;20312;-73
2022/07/24 12:00:11;;;;;;;5.03;4.53;;;;;;;;;;4967113;28;20206;-74
2022/07/24 12:02:44;;;;;;;5.28;4.47;;;;;;;;;;4973346;28;20220;-75
2022/07/24 12:05:12;;;;;;;5.97;4.47;;;;;;;;;;4974871;28;20198;-75
2022/07/24 12:07:41;;;;;;;4.68;4.28;;;;;;;;;;4974961;28;20295;-75
2022/07/24 12:10:11;;;;;;;5.07;4.47;;;;;;;;;;4974347;28;20212;-75
2022/07/24 12:12:40;;;;;;;5.22;4.50;;;;;;;;;;4973612;28;20205;-72
2022/07/24 12:15:11;;;;;;;5.63;4.22;;;;;;;;;;4974271;28;20202;-73
2022/07/24 12:17:56;;;;;;;5.00;4.50;;;;;;;;;;4969535;28;20217;-73
2022/07/24 12:20:25;;;;;;;5.13;4.35;;;;;;;;;;4973904;28;20667;-74
2022/07/24 12:22:53;;;;;;;4.70;4.30;;;;;;;;;;4972180;28;20248;-74
2022/07/24 12:25:24;;;;;;;5.13;4.35;;;;;;;;;;4974399;28;20281;-73
2022/07/24 12:27:53;;;;;;;5.15;4.75;;;;;;;;;;4976041;28;20234;-73
2022/07/24 12:30:23;;;;;;;4.70;4.30;;;;;;;;;;4974644;28;20198;-73
2022/07/24 12:32:56;;;;;;;4.82;4.43;;;;;;;;;;4962476;28;20197;-73
2022/07/24 12:35:26;;;;;;;5.20;4.75;;;;;;;;;;4973770;28;20214;-73
2022/07/24 12:37:55;;;;;;;4.80;4.40;;;;;;;;;;4973826;28;20230;-73
2022/07/24 12:40:26;;;;;;;5.07;4.57;;;;;;;;;;4971077;28;20214;-75
2022/07/24 12:43:03;;;;;;;6.00;4.30;;;;;;;;;;4967526;28;20209;-73
2022/07/24 12:45:32;;;;;;;4.68;4.28;;;;;;;;;;4970502;28;20671;-73
2022/07/24 12:48:27;;;;;;;4.75;4.30;;;;;;;;;;4967021;28;20214;-73
2022/07/24 12:51:00;;;;;;;4.40;3.97;;;;;;;;;;4941507;28;20288;-73
2022/07/24 12:53:29;;;;;;;4.32;3.90;;;;;;;;;;4974293;28;20205;-73
2022/07/24 12:56:07;;;;;;;6.45;4.07;;;;;;;;;;4975584;28;20578;-73
2022/07/24 12:58:53;;;;;;;4.63;4.22;;;;;;;;;;4975196;28;20213;-73
2022/07/24 13:01:22;;;;;;;4.68;3.95;;;;;;;;;;4957085;28;20210;-73
2022/07/24 13:03:52;;;;;;;6.07;4.50;;;;;;;;;;4973735;28;20216;-73
2022/07/24 13:06:21;;;;;;;4.60;4.10;;;;;;;;;;4975136;28;20221;-74
2022/07/24 13:08:50;;;;;;;4.57;4.18;;;;;;;;;;4957283;28;20206;-73
2022/07/24 13:11:20;;;;;;;4.93;4.20;;;;;;;;;;4974795;28;20232;-73
2022/07/24 13:13:48;;;;;;;4.53;4.10;;;;;;;;;;4974656;28;20206;-74
2022/07/24 13:16:17;;;;;;;4.22;3.83;;;;;;;;;;4974211;28;20285;-73
2022/07/24 13:18:45;;;;;;;4.40;4.00;;;;;;;;;;4974780;28;20210;-73
2022/07/24 13:21:14;;;;;;;4.22;3.53;;;;;;;;;;4974966;28;20218;-73
2022/07/24 13:23:42;;;;;;;4.55;4.15;;;;;;;;;;4971718;28;20988;-73
2022/07/24 13:26:11;;;;;;;4.30;4.00;;;;;;;;;;4972171;28;20245;-73
2022/07/24 13:28:41;;;;;;;4.25;3.90;;;;;;;;;;4974416;28;20202;-73
2022/07/24 13:31:09;;;;;;;4.70;4.30;;;;;;;;;;4974075;28;20209;-73
2022/07/24 13:33:38;;;;;;;5.57;4.20;;;;;;;;;;4966118;28;20666;-74
2022/07/24 13:36:07;;;;;;;4.72;3.88;;;;;;;;;;4963280;28;20355;-74
2022/07/24 13:38:37;;;;;;;5.35;4.25;;;;;;;;;;4959501;28;20206;-73
2022/07/24 13:41:05;;;;;;;5.75;4.07;;;;;;;;;;4969912;28;20206;-73
2022/07/24 13:43:34;;;;;;;4.93;4.10;;;;;;;;;;4974856;28;20206;-73
2022/07/24 13:46:04;;;;;;;4.28;3.88;;;;;;;;;;4973911;28;20202;-74
2022/07/24 13:48:33;;;;;;;4.38;4.05;;;;;;;;;;4974979;28;20205;-74
2022/07/24 13:51:01;;;;;;;4.70;4.20;;;;;;;;;;4974460;28;20209;-74
2022/07/24 13:53:30;;;;;;;5.15;4.13;;;;;;;;;;4972206;28;20245;-74
2022/07/24 13:55:58;;;;;;;4.30;4.00;;;;;;;;;;4974238;28;20202;-74
2022/07/24 13:58:27;;;;;;;4.78;4.25;;;;;;;;;;4968049;28;20300;-75
2022/07/24 14:00:55;;;;;;;4.45;4.13;;;;;;;;;;4971686;28;20206;-75
2022/07/24 14:03:26;;;;;;;4.28;3.88;;;;;;;;;;4957898;28;20201;-77
2022/07/24 14:06:09;;;;;;;4.32;4.03;;;;;;;;;;4974837;28;20658;-77
2022/07/24 14:08:42;;;;;;;5.00;4.30;;;;;;;;;;4974448;28;20198;-77
2022/07/24 14:11:15;;;;;;;4.88;4.10;;;;;;;;;;4974771;28;20190;-77
2022/07/24 14:13:46;;;;;;;5.47;4.20;;;;;;;;;;4974692;28;20205;-77
2022/07/24 14:16:16;;;;;;;4.43;4.00;;;;;;;;;;4975086;28;20269;-77
2022/07/24 14:18:46;;;;;;;4.35;4.05;;;;;;;;;;4974289;28;20272;-77
2022/07/24 14:21:15;;;;;;;4.68;4.28;;;;;;;;;;4974934;28;20217;-78
2022/07/24 14:23:43;;;;;;;4.82;4.30;;;;;;;;;;4976152;28;20252;-78
2022/07/24 14:26:12;;;;;;;4.47;4.15;;;;;;;;;;4974550;28;20294;-78
2022/07/24 14:28:40;;;;;;;4.22;3.83;;;;;;;;;;4974492;28;20217;-77
2022/07/24 14:31:09;;;;;;;4.55;4.15;;;;;;;;;;4974400;28;20205;-77
2022/07/24 14:33:42;;;;;;;4.40;4.00;;;;;;;;;;4954646;29;20205;-78
2022/07/24 14:36:12;;;;;;;4.93;4.45;;;;;;;;;;4955067;28;20635;-77
2022/07/24 14:38:41;;;;;;;4.28;3.97;;;;;;;;;;4954627;29;20226;-77
2022/07/24 14:41:09;;;;;;;4.65;4.30;;;;;;;;;;4955017;29;20214;-78
2022/07/24 14:43:38;;;;;;;4.40;4.00;;;;;;;;;;4955007;29;20682;-77
2022/07/24 14:46:07;;;;;;;4.63;4.00;;;;;;;;;;4954970;28;20585;-78
2022/07/24 14:48:36;;;;;;;4.75;4.35;;;;;;;;;;4954461;29;20214;-77
2022/07/24 14:51:05;;;;;;;4.82;4.43;;;;;;;;;;4954653;29;20260;-77
2022/07/24 14:53:39;;;;;;;4.60;4.20;;;;;;;;;;4954465;29;20195;-77
2022/07/24 14:56:07;;;;;;;5.68;4.68;;;;;;;;;;4954480;28;20664;-77
2022/07/24 14:58:36;;;;;;;5.07;4.30;;;;;;;;;;4954336;28;20700;-77
2022/07/24 15:01:05;;;;;;;4.97;4.47;;;;;;;;;;4957807;29;20206;-77
2022/07/24 15:03:33;;;;;;;4.57;4.22;;;;;;;;;;4960725;28;20202;-77